createdAt,value
2023-09-10T00:01:11.627Z,4.30
2023-09-10T00:03:41.255Z,4.87
2023-09-10T00:06:09.698Z,4.78
2023-09-10T00:08:36.970Z,4.43
2023-09-10T00:11:06.302Z,4.35
2023-09-10T00:13:33.481Z,4.87
2023-09-10T00:16:00.342Z,4.60
2023-09-10T00:18:27.123Z,4.75
2023-09-10T00:24:29.846Z,4.97
2023-09-10T00:26:56.439Z,5.10
2023-09-10T00:29:23.057Z,4.95
2023-09-10T00:31:49.924Z,4.68
2023-09-10T00:34:16.594Z,4.72
2023-09-10T00:36:43.147Z,4.60
2023-09-10T00:39:10.255Z,4.75
2023-09-10T00:41:37.062Z,4.78
2023-09-10T00:44:04.167Z,4.85
2023-09-10T00:46:31.496Z,4.97
2023-09-10T00:48:59.933Z,5.20
2023-09-10T00:51:27.376Z,4.68
2023-09-10T00:53:54.369Z,4.72
2023-09-10T00:56:22.025Z,4.55
2023-09-10T00:58:49.202Z,4.55
2023-09-10T01:01:16.479Z,4.87
2023-09-10T01:03:43.794Z,4.62
2023-09-10T01:06:10.454Z,5.03
2023-09-10T01:08:37.572Z,4.82
2023-09-10T01:11:25.993Z,4.50
2023-09-10T01:14:12.512Z,4.60
2023-09-10T01:17:06.425Z,4.37
2023-09-10T01:20:12.995Z,4.65
2023-09-10T01:23:20.603Z,4.53
2023-09-10T01:25:47.679Z,4.97
2023-09-10T01:28:14.296Z,4.60
2023-09-10T01:30:40.962Z,4.60
2023-09-10T01:33:10.178Z,4.40
2023-09-10T01:35:52.890Z,4.40
2023-09-10T01:38:48.505Z,4.87
2023-09-10T01:41:18.418Z,4.07
2023-09-10T01:43:46.203Z,4.57
2023-09-10T01:46:14.208Z,4.40
2023-09-10T01:48:41.697Z,4.50
2023-09-10T01:51:08.704Z,4.87
2023-09-10T01:53:35.267Z,4.18
2023-09-10T01:56:02.010Z,4.35
2023-09-10T01:58:28.659Z,4.47
2023-09-10T02:00:55.389Z,4.57
2023-09-10T02:03:22.145Z,4.47
2023-09-10T02:05:48.792Z,4.37
2023-09-10T02:08:16.191Z,4.72
2023-09-10T02:10:44.548Z,4.43
2023-09-10T02:13:11.144Z,4.65
2023-09-10T02:15:37.780Z,4.35
2023-09-10T02:18:04.751Z,4.55
2023-09-10T02:20:50.157Z,4.70
2023-09-10T02:23:22.986Z,4.60
2023-09-10T02:25:49.564Z,4.82
2023-09-10T02:28:16.226Z,4.65
2023-09-10T02:30:42.857Z,4.87
2023-09-10T02:33:10.680Z,4.70
2023-09-10T02:35:37.381Z,4.78
2023-09-10T02:38:04.188Z,4.55
2023-09-10T02:40:36.274Z,4.70
2023-09-10T02:43:02.905Z,5.10
2023-09-10T02:45:29.596Z,4.87
2023-09-10T02:47:56.208Z,4.55
2023-09-10T02:53:43.434Z,4.65
2023-09-10T02:56:10.288Z,4.70
2023-09-10T02:58:37.207Z,4.62
2023-09-10T03:01:07.309Z,5.00
2023-09-10T03:03:34.747Z,4.80
2023-09-10T03:06:01.898Z,4.60
2023-09-10T03:08:28.607Z,4.60
2023-09-10T03:10:55.301Z,4.95
2023-09-10T03:13:22.056Z,4.45
2023-09-10T03:15:49.701Z,4.75
2023-09-10T03:18:16.492Z,4.90
2023-09-10T03:20:43.227Z,4.55
2023-09-10T03:25:45.063Z,4.50
2023-09-10T03:28:11.991Z,5.20
2023-09-10T03:30:38.561Z,5.20
2023-09-10T03:33:05.452Z,5.03
2023-09-10T03:35:33.113Z,5.18
2023-09-10T03:38:37.391Z,5.57
2023-09-10T03:42:43.382Z,5.15
2023-09-10T03:45:10.430Z,4.90
2023-09-10T03:47:38.310Z,4.80
2023-09-10T03:50:06.094Z,5.10
2023-09-10T03:52:32.809Z,4.57
2023-09-10T03:55:23.586Z,4.97
2023-09-10T03:57:50.233Z,5.70
2023-09-10T04:00:16.875Z,5.10
2023-09-10T04:02:43.846Z,5.28
2023-09-10T04:05:12.869Z,5.60
2023-09-10T04:07:40.000Z,5.47
2023-09-10T04:10:08.119Z,5.10
2023-09-10T04:12:35.093Z,5.00
2023-09-10T04:15:01.685Z,5.20
2023-09-10T04:17:29.971Z,4.70
2023-09-10T04:20:57.252Z,5.28
2023-09-10T04:23:48.809Z,5.10
2023-09-10T04:26:15.691Z,5.37
2023-09-10T04:28:43.072Z,5.40
2023-09-10T04:31:14.978Z,5.72
2023-09-10T04:33:41.874Z,5.03
2023-09-10T04:36:08.494Z,5.10
2023-09-10T04:38:35.316Z,5.68
2023-09-10T04:41:02.065Z,5.20
2023-09-10T04:43:28.959Z,5.43
2023-09-10T04:45:55.725Z,5.20
2023-09-10T04:48:22.362Z,5.03
2023-09-10T04:50:48.958Z,5.43
2023-09-10T04:55:55.444Z,5.15
2023-09-10T04:58:22.320Z,5.40
2023-09-10T05:01:06.736Z,5.15
2023-09-10T05:07:02.587Z,5.18
2023-09-10T05:09:29.141Z,5.70
2023-09-10T05:11:58.628Z,5.20
2023-09-10T05:14:27.919Z,5.15
2023-09-10T05:16:54.586Z,5.12
2023-09-10T05:19:24.923Z,5.03
2023-09-10T05:21:51.594Z,5.22
2023-09-10T05:24:18.179Z,5.28
2023-09-10T05:26:44.743Z,5.28
2023-09-10T05:29:11.340Z,4.78
2023-09-10T05:31:38.417Z,5.10
2023-09-10T05:34:05.259Z,5.57
2023-09-10T05:36:31.844Z,5.07
2023-09-10T05:38:58.409Z,5.00
2023-09-10T05:41:24.978Z,4.47
2023-09-10T05:43:51.647Z,4.93
2023-09-10T05:46:18.705Z,4.60
2023-09-10T05:48:45.425Z,4.82
2023-09-10T05:51:12.016Z,4.82
2023-09-10T05:54:02.948Z,5.30
2023-09-10T05:56:45.295Z,5.18
2023-09-10T05:59:11.876Z,5.00
2023-09-10T06:01:38.531Z,4.57
2023-09-10T06:04:05.510Z,4.60
2023-09-10T06:06:32.189Z,4.57
2023-09-10T06:09:05.124Z,4.50
2023-09-10T06:11:31.787Z,4.12
2023-09-10T06:13:58.424Z,4.12
2023-09-10T06:16:25.160Z,4.53
2023-09-10T06:18:52.342Z,4.70
2023-09-10T06:21:19.233Z,5.15
2023-09-10T06:23:46.132Z,4.50
2023-09-10T06:26:14.180Z,4.28
2023-09-10T06:28:41.128Z,4.60
2023-09-10T06:31:09.259Z,4.72
2023-09-10T06:33:36.105Z,4.78
2023-09-10T06:36:03.202Z,4.97
2023-09-10T06:38:30.304Z,4.57
2023-09-10T06:40:57.175Z,4.55
2023-09-10T06:43:23.779Z,4.22
2023-09-10T06:45:52.403Z,4.40
2023-09-10T06:48:20.090Z,4.35
2023-09-10T06:50:46.966Z,4.40
2023-09-10T06:53:13.938Z,4.50
2023-09-10T06:55:40.813Z,4.72
2023-09-10T06:58:07.428Z,4.68
2023-09-10T07:00:35.079Z,4.45
2023-09-10T07:03:03.641Z,4.95
2023-09-10T07:05:30.424Z,4.62
2023-09-10T07:07:57.195Z,4.95
2023-09-10T07:10:23.811Z,5.10
2023-09-10T07:12:50.449Z,5.35
2023-09-10T07:15:17.135Z,5.47
2023-09-10T07:17:44.460Z,4.78
2023-09-10T07:20:12.327Z,5.50
2023-09-10T07:22:39.027Z,5.93
2023-09-10T07:25:06.585Z,5.07
2023-09-10T07:27:33.191Z,5.47
2023-09-10T07:29:59.733Z,5.28
2023-09-10T07:32:26.933Z,5.30
2023-09-10T07:34:53.580Z,5.05
2023-09-10T07:37:29.078Z,5.20
2023-09-10T07:39:55.669Z,5.68
2023-09-10T07:42:22.265Z,5.12
2023-09-10T07:44:48.802Z,4.93
2023-09-10T07:47:15.694Z,4.85
2023-09-10T07:50:00.752Z,5.03
2023-09-10T07:52:45.486Z,5.05
2023-09-10T07:55:12.093Z,4.80
2023-09-10T07:57:40.396Z,5.10
2023-09-10T08:00:09.601Z,4.97
2023-09-10T08:02:36.337Z,4.65
2023-09-10T08:05:04.119Z,5.32
2023-09-10T08:07:30.687Z,4.68
2023-09-10T08:09:57.242Z,5.32
2023-09-10T08:12:23.815Z,4.87
2023-09-10T08:14:50.418Z,4.03
2023-09-10T08:17:17.017Z,4.87
2023-09-10T08:19:43.642Z,5.30
2023-09-10T08:22:10.240Z,5.05
2023-09-10T08:24:36.802Z,4.60
2023-09-10T08:27:04.500Z,4.50
2023-09-10T08:29:31.290Z,4.68
2023-09-10T08:32:00.122Z,5.22
2023-09-10T08:34:27.137Z,4.60
2023-09-10T08:39:38.051Z,4.07
2023-09-10T08:42:11.140Z,4.35
2023-09-10T08:44:40.719Z,4.35
2023-09-10T08:47:09.509Z,4.37
2023-09-10T08:49:42.062Z,4.53
2023-09-10T08:59:04.570Z,4.53
2023-09-10T09:03:58.895Z,4.20
2023-09-10T09:06:30.084Z,4.28
2023-09-10T09:09:01.069Z,4.65
2023-09-10T09:11:30.684Z,4.28
2023-09-10T09:13:59.075Z,4.28
2023-09-10T09:16:26.187Z,4.28
2023-09-10T09:18:53.085Z,4.37
2023-09-10T09:21:22.645Z,4.05
2023-09-10T09:24:04.954Z,4.20
2023-09-10T09:26:34.686Z,4.05
2023-09-10T09:29:01.600Z,4.20
2023-09-10T09:31:28.224Z,4.00
2023-09-10T09:33:54.897Z,3.62
2023-09-10T09:36:28.581Z,3.80
2023-09-10T09:47:53.596Z,4.75
2023-09-10T09:50:26.449Z,3.85
2023-09-10T09:52:54.313Z,3.55
2023-09-10T09:55:21.122Z,3.78
2023-09-10T09:57:49.130Z,4.10
2023-09-10T10:00:16.407Z,3.72
2023-09-10T10:02:44.010Z,3.75
2023-09-10T10:05:27.064Z,4.15
2023-09-10T10:07:53.817Z,3.87
2023-09-10T10:10:20.906Z,3.83
2023-09-10T10:12:48.639Z,3.60
2023-09-10T10:15:17.345Z,3.97
2023-09-10T10:17:46.207Z,4.22
2023-09-10T10:20:14.808Z,3.62
2023-09-10T10:22:42.727Z,3.92
2023-09-10T10:25:09.955Z,4.07
2023-09-10T10:27:36.728Z,6.12
2023-09-10T10:30:04.983Z,3.53
2023-09-10T10:32:45.013Z,4.35
2023-09-10T10:35:12.813Z,3.67
2023-09-10T10:38:04.205Z,3.60
2023-09-10T10:40:43.250Z,3.40
2023-09-10T10:43:18.991Z,3.45
2023-09-10T10:45:53.082Z,3.35
2023-09-10T10:48:21.444Z,3.72
2023-09-10T10:50:50.087Z,3.72
2023-09-10T10:53:21.420Z,3.50
2023-09-10T10:55:57.739Z,3.62
2023-09-10T10:58:29.514Z,3.45
2023-09-10T11:00:58.760Z,3.40
2023-09-10T11:03:26.008Z,3.58
2023-09-10T11:05:55.886Z,4.03
2023-09-10T11:08:30.220Z,3.42
2023-09-10T11:11:35.772Z,3.37
2023-09-10T11:14:04.476Z,3.33
2023-09-10T11:16:35.124Z,4.15
2023-09-10T11:19:03.249Z,3.78
2023-09-10T11:21:44.659Z,3.60
2023-09-10T11:24:13.978Z,3.50
2023-09-10T11:26:40.582Z,3.75
2023-09-10T11:29:07.291Z,4.00
2023-09-10T11:31:40.192Z,3.62
2023-09-10T11:34:21.830Z,3.20
2023-09-10T11:36:50.373Z,4.00
2023-09-10T11:39:19.118Z,3.30
2023-09-10T11:41:55.282Z,3.22
2023-09-10T11:44:21.869Z,3.50
2023-09-10T11:46:50.241Z,3.30
2023-09-10T11:49:16.996Z,3.10
2023-09-10T11:51:45.715Z,3.30
2023-09-10T11:54:22.417Z,3.62
2023-09-10T11:56:52.622Z,3.53
2023-09-10T11:59:27.396Z,3.33
2023-09-10T12:01:55.608Z,3.33
2023-09-10T12:04:34.790Z,3.28
2023-09-10T12:07:07.648Z,2.80
2023-09-10T12:09:34.480Z,3.17
2023-09-10T12:12:25.224Z,3.55
2023-09-10T12:14:52.270Z,3.42
2023-09-10T12:17:19.340Z,3.40
2023-09-10T12:19:46.893Z,3.05
2023-09-10T12:22:19.151Z,3.05
2023-09-10T12:24:46.815Z,3.30
2023-09-10T12:27:14.714Z,3.75
2023-09-10T12:29:42.347Z,3.30
2023-09-10T12:32:09.743Z,3.50
2023-09-10T12:34:37.404Z,2.87
2023-09-10T12:37:04.347Z,2.95
2023-09-10T12:39:31.220Z,2.80
2023-09-10T12:42:05.166Z,3.08
2023-09-10T12:44:35.075Z,3.10
2023-09-10T12:47:04.728Z,3.92
2023-09-10T12:49:31.490Z,3.65
2023-09-10T12:51:58.160Z,3.40
2023-09-10T12:54:24.985Z,3.12
2023-09-10T12:57:16.119Z,3.00
2023-09-10T12:59:42.811Z,2.80
2023-09-10T13:02:11.896Z,2.70
2023-09-10T13:04:38.683Z,3.37
2023-09-10T13:07:07.793Z,2.85
2023-09-10T13:09:35.434Z,2.83
2023-09-10T13:12:02.072Z,3.00
2023-09-10T13:14:29.252Z,3.05
2023-09-10T13:16:58.364Z,3.25
2023-09-10T13:19:25.145Z,3.03
2023-09-10T13:21:51.733Z,3.12
2023-09-10T13:24:18.285Z,2.92
2023-09-10T13:26:44.848Z,2.87
2023-09-10T13:29:11.432Z,2.60
2023-09-10T13:31:38.225Z,3.03
2023-09-10T13:34:06.319Z,2.90
2023-09-10T13:36:32.931Z,2.80
2023-09-10T13:38:59.552Z,2.72
2023-09-10T13:41:26.666Z,2.92
2023-09-10T13:43:55.520Z,2.78
2023-09-10T13:46:22.145Z,2.90
2023-09-10T13:48:49.283Z,2.90
2023-09-10T13:51:15.919Z,2.97
2023-09-10T13:53:45.095Z,2.80
2023-09-10T13:56:12.605Z,2.80
2023-09-10T13:58:39.375Z,3.05
2023-09-10T14:01:08.716Z,2.75
2023-09-10T14:03:35.890Z,3.00
2023-09-10T14:06:03.709Z,3.03
2023-09-10T14:08:30.484Z,2.95
2023-09-10T14:10:57.098Z,3.03
2023-09-10T14:13:23.704Z,2.83
2023-09-10T14:15:50.294Z,3.15
2023-09-10T14:18:17.000Z,2.97
2023-09-10T14:20:45.519Z,2.75
2023-09-10T14:23:12.263Z,2.60
2023-09-10T14:25:38.899Z,2.55
2023-09-10T14:28:05.666Z,3.03
2023-09-10T14:30:32.266Z,3.05
2023-09-10T14:32:58.910Z,2.95
2023-09-10T14:35:25.596Z,3.03
2023-09-10T14:37:52.248Z,3.10
2023-09-10T14:40:19.074Z,3.08
2023-09-10T14:42:45.772Z,2.72
2023-09-10T14:45:15.190Z,2.60
2023-09-10T14:47:42.055Z,2.60
2023-09-10T14:50:14.006Z,3.75
2023-09-10T14:52:44.940Z,3.47
2023-09-10T14:55:12.580Z,3.85
2023-09-10T14:57:39.810Z,3.75
2023-09-10T15:00:07.301Z,3.30
2023-09-10T15:02:34.516Z,4.03
2023-09-10T15:05:02.186Z,3.20
2023-09-10T15:07:28.773Z,3.67
2023-09-10T15:09:55.464Z,3.47
2023-09-10T15:12:22.058Z,3.58
2023-09-10T15:14:49.640Z,3.10
2023-09-10T15:17:16.429Z,3.80
2023-09-10T15:19:43.070Z,3.22
2023-09-10T15:22:09.644Z,3.60
2023-09-10T15:24:37.349Z,3.08
2023-09-10T15:27:04.664Z,3.30
2023-09-10T15:29:31.435Z,4.18
2023-09-10T15:31:58.844Z,3.70
2023-09-10T15:34:25.454Z,3.58
2023-09-10T15:36:52.097Z,3.50
2023-09-10T15:39:21.193Z,3.35
2023-09-10T15:41:49.748Z,3.40
2023-09-10T15:44:17.166Z,3.70
2023-09-10T15:46:43.964Z,3.12
2023-09-10T15:49:10.651Z,3.35
2023-09-10T15:51:37.300Z,3.55
2023-09-10T15:54:04.305Z,3.72
2023-09-10T15:56:30.983Z,3.08
2023-09-10T15:58:57.682Z,3.53
2023-09-10T16:01:24.345Z,3.35
2023-09-10T16:03:51.094Z,3.40
2023-09-10T16:06:17.928Z,3.30
2023-09-10T16:08:44.558Z,3.83
2023-09-10T16:11:13.805Z,4.37
2023-09-10T16:13:41.871Z,9.98
2023-09-10T16:16:08.693Z,6.32
2023-09-10T16:18:35.573Z,4.35
2023-09-10T16:21:02.298Z,3.85
2023-09-10T16:23:34.257Z,3.78
2023-09-10T16:26:01.793Z,3.55
2023-09-10T16:28:28.498Z,3.20
2023-09-10T16:30:55.183Z,3.45
2023-09-10T16:33:21.882Z,3.55
2023-09-10T16:35:48.678Z,3.33
2023-09-10T16:38:15.551Z,3.47
2023-09-10T16:40:42.227Z,3.58
2023-09-10T16:43:08.851Z,3.75
2023-09-10T16:45:35.433Z,4.32
2023-09-10T16:48:02.144Z,3.87
2023-09-10T16:50:28.859Z,6.28
2023-09-10T16:52:55.554Z,4.68
2023-09-10T16:55:22.208Z,3.75
2023-09-10T16:57:48.942Z,3.90
2023-09-10T17:00:18.926Z,4.60
2023-09-10T17:02:45.665Z,4.37
2023-09-10T17:05:12.469Z,4.80
2023-09-10T17:07:42.714Z,5.47
2023-09-10T17:10:09.809Z,5.00
2023-09-10T17:12:36.489Z,4.55
2023-09-10T17:15:03.515Z,4.28
2023-09-10T17:17:36.120Z,4.82
2023-09-10T17:20:02.811Z,4.35
2023-09-10T17:22:30.034Z,4.60
2023-09-10T17:24:56.896Z,4.82
2023-09-10T17:27:23.539Z,4.62
2023-09-10T17:29:51.227Z,4.75
2023-09-10T17:32:18.868Z,4.45
2023-09-10T17:34:45.538Z,4.72
2023-09-10T17:37:12.180Z,5.68
2023-09-10T17:39:39.828Z,5.68
2023-09-10T17:42:06.455Z,5.80
2023-09-10T17:44:34.839Z,6.18
2023-09-10T17:47:06.206Z,6.40
2023-09-10T17:49:35.305Z,5.95
2023-09-10T17:52:02.025Z,5.95
2023-09-10T17:54:28.630Z,5.30
2023-09-10T17:56:55.276Z,5.37
2023-09-10T17:59:22.074Z,6.45
2023-09-10T18:01:49.040Z,5.32
2023-09-10T18:04:16.027Z,5.60
2023-09-10T18:06:42.685Z,5.32
2023-09-10T18:09:09.380Z,5.18
2023-09-10T18:11:38.575Z,4.90
2023-09-10T18:14:05.333Z,5.22
2023-09-10T18:16:31.992Z,5.00
2023-09-10T18:19:00.583Z,5.28
2023-09-10T18:21:27.334Z,5.28
2023-09-10T18:23:54.034Z,5.50
2023-09-10T18:26:22.858Z,5.37
2023-09-10T18:28:49.426Z,5.53
2023-09-10T18:31:16.008Z,5.35
2023-09-10T18:33:42.962Z,5.28
2023-09-10T18:36:09.774Z,4.25
2023-09-10T18:38:51.036Z,4.62
2023-09-10T18:41:17.681Z,4.93
2023-09-10T18:43:44.317Z,5.12
2023-09-10T18:46:11.003Z,4.90
2023-09-10T18:48:37.901Z,5.30
2023-09-10T18:51:04.600Z,4.37
2023-09-10T18:53:32.458Z,4.95
2023-09-10T18:55:59.323Z,4.80
2023-09-10T18:58:25.957Z,4.93
2023-09-10T19:00:53.377Z,4.62
2023-09-10T19:03:20.540Z,4.78
2023-09-10T19:05:50.821Z,4.72
2023-09-10T19:08:17.406Z,4.75
2023-09-10T19:10:44.028Z,5.72
2023-09-10T19:13:10.613Z,5.60
2023-09-10T19:15:40.597Z,5.53
2023-09-10T19:18:07.350Z,4.87
2023-09-10T19:20:34.039Z,5.00
2023-09-10T19:23:01.964Z,4.50
2023-09-10T19:25:28.608Z,4.93
2023-09-10T19:27:55.250Z,4.70
2023-09-10T19:30:21.850Z,4.47
2023-09-10T19:32:48.636Z,4.70
2023-09-10T19:35:17.532Z,4.57
2023-09-10T19:37:44.300Z,4.55
2023-09-10T19:40:11.141Z,4.85
2023-09-10T19:42:37.992Z,4.62
2023-09-10T19:45:04.907Z,4.15
2023-09-10T19:47:31.616Z,4.62
2023-09-10T19:49:58.218Z,4.03
2023-09-10T19:52:24.837Z,4.40
2023-09-10T19:55:03.423Z,4.78
2023-09-10T19:57:36.037Z,4.72
2023-09-10T20:00:03.307Z,4.47
2023-09-10T20:02:30.047Z,4.55
2023-09-10T20:04:56.807Z,4.70
2023-09-10T20:07:23.519Z,3.90
2023-09-10T20:09:50.118Z,4.22
2023-09-10T20:12:38.295Z,4.70
2023-09-10T20:15:06.712Z,4.50
2023-09-10T20:17:34.059Z,5.20
2023-09-10T20:20:00.836Z,4.68
2023-09-10T20:22:27.441Z,4.60
2023-09-10T20:24:54.539Z,4.43
2023-09-10T20:27:21.206Z,4.82
2023-09-10T20:29:47.898Z,5.00
2023-09-10T20:32:14.571Z,4.50
2023-09-10T20:34:41.231Z,4.60
2023-09-10T20:37:07.837Z,5.20
2023-09-10T20:39:34.387Z,4.65
2023-09-10T20:42:01.706Z,4.20
2023-09-10T20:44:28.600Z,4.60
2023-09-10T20:46:55.253Z,4.78
2023-09-10T20:49:21.945Z,4.30
2023-09-10T20:51:51.060Z,4.72
2023-09-10T20:54:17.642Z,4.90
2023-09-10T20:56:44.278Z,4.25
2023-09-10T20:59:10.882Z,4.25
2023-09-10T21:01:37.542Z,4.60
2023-09-10T21:04:04.397Z,4.85
2023-09-10T21:06:31.298Z,4.40
2023-09-10T21:08:58.079Z,4.68
2023-09-10T21:11:24.755Z,4.45
2023-09-10T21:13:51.783Z,4.75
2023-09-10T21:16:18.538Z,4.80
2023-09-10T21:18:46.546Z,4.53
2023-09-10T21:21:14.050Z,4.35
2023-09-10T21:23:40.808Z,4.12
2023-09-10T21:26:08.634Z,4.75
2023-09-10T21:28:35.251Z,4.93
2023-09-10T21:31:01.847Z,4.30
2023-09-10T21:33:28.511Z,4.85
2023-09-10T21:35:55.331Z,4.35
2023-09-10T21:38:22.082Z,4.25
2023-09-10T21:40:48.667Z,4.32
2023-09-10T21:43:15.373Z,3.72
2023-09-10T21:45:43.172Z,4.35
2023-09-10T21:48:10.974Z,4.62
2023-09-10T21:50:38.080Z,4.15
2023-09-10T21:53:05.522Z,4.12
2023-09-10T21:55:32.164Z,4.07
2023-09-10T21:57:58.936Z,4.80
2023-09-10T22:00:25.607Z,4.20
2023-09-10T22:02:52.292Z,4.20
2023-09-10T22:05:19.218Z,4.50
2023-09-10T22:07:45.873Z,4.20
2023-09-10T22:10:12.485Z,4.15
2023-09-10T22:12:39.064Z,4.40
2023-09-10T22:15:09.872Z,4.22
2023-09-10T22:17:39.468Z,4.10
2023-09-10T22:20:12.370Z,3.85
2023-09-10T22:22:40.180Z,4.57
2023-09-10T22:25:06.925Z,4.25
2023-09-10T22:27:33.667Z,4.07
2023-09-10T22:30:00.405Z,4.47
2023-09-10T22:32:27.079Z,4.53
2023-09-10T22:34:53.805Z,4.32
2023-09-10T22:37:20.365Z,4.00
2023-09-10T22:39:48.119Z,3.95
2023-09-10T22:42:15.108Z,4.10
2023-09-10T22:44:41.745Z,4.50
2023-09-10T22:47:08.385Z,3.97
2023-09-10T22:49:36.057Z,4.45
2023-09-10T22:52:02.656Z,4.10
2023-09-10T22:54:29.542Z,4.10
2023-09-10T22:56:56.124Z,4.53
2023-09-10T22:59:22.718Z,4.12
2023-09-10T23:01:50.119Z,3.75
2023-09-10T23:04:18.184Z,4.12
2023-09-10T23:06:46.626Z,4.15
2023-09-10T23:09:13.440Z,4.10
2023-09-10T23:11:40.314Z,4.00
2023-09-10T23:14:07.219Z,3.62
2023-09-10T23:16:35.209Z,3.83
2023-09-10T23:19:03.712Z,4.10
2023-09-10T23:21:30.529Z,4.00
2023-09-10T23:23:57.231Z,3.97
2023-09-10T23:26:24.034Z,3.70
2023-09-10T23:28:50.725Z,4.47
2023-09-10T23:31:17.380Z,3.87
2023-09-10T23:33:44.439Z,4.00
2023-09-10T23:36:11.110Z,3.90
2023-09-10T23:38:37.836Z,4.10
2023-09-10T23:41:07.594Z,3.83
2023-09-10T23:43:36.506Z,3.97
2023-09-10T23:46:03.899Z,3.72
2023-09-10T23:48:30.523Z,3.75
2023-09-10T23:50:57.678Z,4.05
2023-09-10T23:53:24.351Z,3.80
2023-09-10T23:55:50.933Z,3.40
2023-09-10T23:58:17.534Z,3.92
